Isle la Motte, Vermont
Current Conditions -  °F | °C
As of 1:15 PM on Wednesday 28 Jan 2015 (Local Time) from KFSO Reporting Station
Clear Clear  
Wind Chill:   Ceiling: Unl
Heat Index: 15°   Visibility: 10mi
Dew Point: -4°   Wind: 5mph
Humidity: 44%   Direction: 340°NNW
Pressure: 30.16"   Gusts: NA
Location:  44.88°N, 73.34°W
Report Text: KFSO 281815Z AUTO 34004KT 10SM CLR M10/M20 A3016 RMK AO2 T10971200
Loading
Personal Weather Stations






























Interactive Weather Map New forecast layout! Learn more

10-Day Weather Forecast

Advertisements
Track Severe Weather on mobile